createdAt,value
2019-01-08T00:00:58.506Z,90.00
2019-01-08T00:03:30.227Z,89.90
2019-01-08T00:05:59.647Z,89.50
2019-01-08T00:08:28.938Z,89.20
2019-01-08T00:10:58.503Z,89.70
2019-01-08T00:13:28.282Z,90.00
2019-01-08T00:15:57.844Z,89.70
2019-01-08T00:18:27.596Z,89.70
2019-01-08T00:20:57.207Z,90.00
2019-01-08T00:23:28.717Z,89.60
2019-01-08T00:25:58.836Z,89.00
2019-01-08T00:28:28.314Z,89.30
2019-01-08T00:30:57.682Z,89.40
2019-01-08T00:33:27.009Z,88.10
2019-01-08T00:35:56.751Z,88.70
2019-01-08T00:38:26.559Z,88.80
2019-01-08T00:40:55.842Z,87.90
2019-01-08T00:43:25.857Z,87.90
2019-01-08T00:45:56.026Z,87.50
2019-01-08T00:48:25.704Z,87.20
2019-01-08T00:50:55.783Z,87.80
2019-01-08T00:53:25.741Z,87.70
2019-01-08T00:55:55.642Z,88.30
2019-01-08T00:58:25.378Z,87.80
2019-01-08T01:00:56.254Z,88.50
2019-01-08T01:03:25.986Z,87.80
2019-01-08T01:05:55.749Z,88.80
2019-01-08T01:08:25.460Z,89.30
2019-01-08T01:10:54.932Z,89.50
2019-01-08T01:13:24.266Z,90.30
2019-01-08T01:15:53.739Z,90.40
2019-01-08T01:18:25.599Z,90.60
2019-01-08T01:20:55.275Z,90.70
2019-01-08T01:23:25.113Z,90.70
2019-01-08T01:25:54.598Z,91.10
2019-01-08T01:28:23.877Z,90.70
2019-01-08T01:30:53.189Z,90.70
2019-01-08T01:33:22.406Z,90.60
2019-01-08T01:35:52.109Z,90.70
2019-01-08T01:38:21.638Z,91.00
2019-01-08T01:40:51.162Z,91.10
2019-01-08T01:43:20.562Z,91.10
2019-01-08T01:45:49.897Z,91.30
2019-01-08T01:48:19.738Z,91.50
2019-01-08T01:50:49.247Z,91.80
2019-01-08T01:53:19.618Z,92.00
2019-01-08T01:58:15.786Z,92.20
2019-01-08T02:00:45.309Z,92.40
2019-01-08T02:03:14.411Z,92.50
2019-01-08T02:05:43.744Z,92.70
2019-01-08T02:08:13.229Z,92.90
2019-01-08T02:10:43.829Z,92.90
2019-01-08T02:13:13.570Z,92.90
2019-01-08T02:15:42.698Z,92.90
2019-01-08T02:18:12.524Z,92.90
2019-01-08T02:20:42.393Z,92.80
2019-01-08T02:23:12.425Z,92.80
2019-01-08T02:25:41.839Z,92.90
2019-01-08T02:28:11.421Z,93.10
2019-01-08T02:30:41.077Z,93.20
2019-01-08T02:33:11.383Z,93.20
2019-01-08T02:35:40.780Z,93.20
2019-01-08T02:38:10.149Z,93.20
2019-01-08T02:40:39.762Z,93.30
2019-01-08T02:43:08.984Z,93.20
2019-01-08T02:45:38.335Z,93.20
2019-01-08T02:48:08.185Z,93.20
2019-01-08T02:50:37.898Z,93.20
2019-01-08T02:53:07.610Z,93.10
2019-01-08T02:55:37.101Z,93.20
2019-01-08T02:58:08.357Z,93.40
2019-01-08T03:00:37.557Z,93.40
2019-01-08T03:03:07.110Z,93.40
2019-01-08T03:05:37.371Z,93.30
2019-01-08T03:08:07.500Z,93.20
2019-01-08T03:10:36.867Z,93.10
2019-01-08T03:13:06.846Z,92.90
2019-01-08T03:15:36.273Z,92.80
2019-01-08T03:18:06.696Z,92.90
2019-01-08T03:20:36.472Z,92.90
2019-01-08T03:23:06.227Z,92.70
2019-01-08T03:25:35.911Z,92.60
2019-01-08T03:28:05.233Z,92.50
2019-01-08T03:30:37.138Z,92.40
2019-01-08T03:33:06.587Z,92.40
2019-01-08T03:35:36.341Z,92.30
2019-01-08T03:38:06.759Z,92.20
2019-01-08T03:40:37.384Z,92.00
2019-01-08T03:43:07.180Z,91.90
2019-01-08T03:45:37.286Z,91.90
2019-01-08T03:48:07.006Z,91.80
2019-01-08T03:50:36.586Z,91.80
2019-01-08T03:53:06.306Z,91.60
2019-01-08T03:55:35.592Z,91.30
2019-01-08T03:58:05.113Z,91.00
2019-01-08T04:00:34.769Z,90.90
2019-01-08T04:03:04.026Z,90.80
2019-01-08T04:05:33.713Z,90.70
2019-01-08T04:08:02.745Z,90.60
2019-01-08T04:10:32.297Z,90.70
2019-01-08T04:13:03.479Z,90.40
2019-01-08T04:15:33.133Z,90.70
2019-01-08T04:18:03.112Z,90.40
2019-01-08T04:20:32.487Z,90.40
2019-01-08T04:23:01.867Z,90.60
2019-01-08T04:25:31.447Z,90.40
2019-01-08T04:28:00.904Z,90.70
2019-01-08T04:30:30.348Z,90.50
2019-01-08T04:32:59.385Z,90.90
2019-01-08T04:35:29.003Z,91.20
2019-01-08T04:37:58.681Z,91.60
2019-01-08T04:40:27.781Z,92.00
2019-01-08T04:42:59.083Z,92.10
2019-01-08T04:45:28.484Z,92.50
2019-01-08T04:47:58.172Z,92.80
2019-01-08T04:50:27.934Z,93.10
2019-01-08T04:52:58.474Z,93.30
2019-01-08T04:55:28.843Z,93.30
2019-01-08T04:57:58.435Z,93.40
2019-01-08T05:00:28.153Z,93.60
2019-01-08T05:02:57.911Z,93.60
2019-01-08T05:05:27.131Z,93.40
2019-01-08T05:08:00.725Z,93.50
2019-01-08T05:10:29.796Z,93.50
2019-01-08T05:12:59.229Z,93.50
2019-01-08T05:15:28.908Z,93.70
2019-01-08T05:17:58.047Z,93.60
2019-01-08T05:20:27.850Z,93.60
2019-01-08T05:22:57.460Z,93.70
2019-01-08T05:25:26.847Z,93.70
2019-01-08T05:27:56.481Z,93.60
2019-01-08T05:30:26.039Z,93.70
2019-01-08T05:32:55.850Z,93.60
2019-01-08T05:35:26.034Z,93.30
2019-01-08T05:37:55.226Z,93.30
2019-01-08T05:40:24.255Z,93.30
2019-01-08T05:42:54.816Z,93.50
2019-01-08T05:45:24.369Z,93.60
2019-01-08T05:47:54.657Z,93.70
2019-01-08T05:50:24.095Z,93.70
2019-01-08T05:52:53.801Z,93.70
2019-01-08T05:55:23.110Z,93.80
2019-01-08T05:57:53.094Z,93.70
2019-01-08T06:00:22.667Z,93.50
2019-01-08T06:02:52.087Z,93.60
2019-01-08T06:05:21.641Z,93.70
2019-01-08T06:07:51.089Z,93.60
2019-01-08T06:10:20.524Z,93.60
2019-01-08T06:12:50.179Z,93.70
2019-01-08T06:15:20.916Z,93.80
2019-01-08T06:17:50.517Z,93.70
2019-01-08T06:20:20.302Z,93.60
2019-01-08T06:22:49.308Z,93.70
2019-01-08T06:25:19.567Z,93.50
2019-01-08T06:27:49.850Z,93.40
2019-01-08T06:30:24.690Z,93.50
2019-01-08T06:32:51.807Z,93.30
2019-01-08T06:35:21.217Z,93.20
2019-01-08T06:37:50.709Z,93.10
2019-01-08T06:40:20.532Z,93.30
2019-01-08T06:42:51.994Z,93.30
2019-01-08T06:45:21.521Z,93.30
2019-01-08T06:47:52.378Z,93.30
2019-01-08T06:50:22.181Z,93.10
2019-01-08T06:52:52.237Z,93.30
2019-01-08T06:55:21.365Z,93.20
2019-01-08T06:57:50.958Z,93.30
2019-01-08T07:00:20.522Z,93.30
2019-01-08T07:02:49.889Z,93.20
2019-01-08T07:05:19.775Z,93.50
2019-01-08T07:07:49.194Z,93.50
2019-01-08T07:10:18.959Z,93.70
2019-01-08T07:12:49.919Z,93.50
2019-01-08T07:15:19.089Z,93.70
2019-01-08T07:17:49.092Z,93.60
2019-01-08T07:20:18.230Z,93.50
2019-01-08T07:22:47.303Z,93.50
2019-01-08T07:25:16.179Z,93.50
2019-01-08T07:27:45.304Z,93.40
2019-01-08T07:30:15.135Z,93.50
2019-01-08T07:32:45.145Z,93.60
2019-01-08T07:35:14.261Z,93.60
2019-01-08T07:37:44.230Z,93.40
2019-01-08T07:40:13.940Z,93.20
2019-01-08T07:42:43.379Z,93.10
2019-01-08T07:45:12.900Z,93.00
2019-01-08T07:47:43.875Z,93.10
2019-01-08T07:50:13.687Z,93.10
2019-01-08T07:52:43.509Z,93.00
2019-01-08T07:55:13.468Z,92.80
2019-01-08T07:57:46.001Z,92.60
2019-01-08T08:00:16.075Z,92.80
2019-01-08T08:02:45.741Z,92.70
2019-01-08T08:05:17.805Z,93.40
2019-01-08T08:07:50.364Z,92.80
2019-01-08T08:10:20.408Z,92.50
2019-01-08T08:12:50.626Z,92.50
2019-01-08T08:15:24.411Z,92.40
2019-01-08T08:17:54.729Z,92.50
2019-01-08T08:20:25.163Z,92.50
2019-01-08T08:22:54.186Z,92.60
2019-01-08T08:25:23.856Z,92.40
2019-01-08T08:27:53.983Z,92.20
2019-01-08T08:30:26.204Z,92.30
2019-01-08T08:32:55.624Z,92.20
2019-01-08T08:35:25.226Z,92.20
2019-01-08T08:37:55.762Z,92.30
2019-01-08T08:40:25.102Z,92.40
2019-01-08T08:42:54.909Z,92.10
2019-01-08T08:45:25.147Z,92.10
2019-01-08T08:47:54.846Z,91.90
2019-01-08T08:50:25.364Z,91.90
2019-01-08T08:52:55.335Z,92.40
2019-01-08T08:55:25.866Z,91.60
2019-01-08T08:57:55.725Z,91.40
2019-01-08T09:00:29.439Z,91.20
2019-01-08T09:03:02.395Z,90.80
2019-01-08T09:05:31.766Z,91.10
2019-01-08T09:08:01.660Z,91.30
2019-01-08T09:10:31.241Z,90.70
2019-01-08T09:13:18.525Z,91.00
2019-01-08T09:15:48.805Z,90.30
2019-01-08T09:18:18.503Z,89.30
2019-01-08T09:20:48.942Z,89.20
2019-01-08T09:23:18.562Z,88.80
2019-01-08T09:25:48.188Z,89.70
2019-01-08T09:28:18.470Z,90.20
2019-01-08T09:30:51.306Z,91.00
2019-01-08T09:33:25.006Z,90.90
2019-01-08T09:35:59.779Z,91.50
2019-01-08T09:38:32.199Z,91.90
2019-01-08T09:41:03.335Z,92.00
2019-01-08T09:43:37.952Z,92.20
2019-01-08T09:46:07.580Z,92.80
2019-01-08T09:48:37.694Z,92.40
2019-01-08T09:51:08.641Z,92.70
2019-01-08T09:53:39.341Z,92.40
2019-01-08T09:56:09.659Z,92.30
2019-01-08T09:58:39.540Z,92.20
2019-01-08T10:01:08.986Z,92.30
2019-01-08T10:03:38.503Z,92.00
2019-01-08T10:06:08.292Z,92.50
2019-01-08T10:08:38.070Z,92.00
2019-01-08T10:11:07.606Z,91.80
2019-01-08T10:13:36.863Z,91.70
2019-01-08T10:16:06.462Z,91.60
2019-01-08T10:18:35.757Z,91.60
2019-01-08T10:21:05.801Z,91.70
2019-01-08T10:23:35.641Z,91.80
2019-01-08T10:26:06.126Z,91.30
2019-01-08T10:28:38.177Z,91.30
2019-01-08T10:31:09.034Z,91.20
2019-01-08T10:33:38.901Z,91.00
2019-01-08T10:36:08.158Z,90.90
2019-01-08T10:38:39.342Z,90.50
2019-01-08T10:41:09.126Z,90.50
2019-01-08T10:43:38.177Z,90.30
2019-01-08T10:46:08.085Z,90.20
2019-01-08T10:48:37.734Z,90.40
2019-01-08T10:51:07.070Z,89.30
2019-01-08T10:53:36.866Z,88.60
2019-01-08T10:56:05.962Z,89.80
2019-01-08T10:58:36.164Z,89.40
2019-01-08T11:01:07.395Z,90.00
2019-01-08T11:03:37.245Z,89.90
2019-01-08T11:06:08.430Z,89.60
2019-01-08T11:08:37.526Z,90.00
2019-01-08T11:11:07.670Z,90.30
2019-01-08T11:13:37.551Z,90.90
2019-01-08T11:16:07.358Z,91.00
2019-01-08T11:18:36.620Z,91.40
2019-01-08T11:21:06.720Z,91.60
2019-01-08T11:23:39.417Z,91.80
2019-01-08T11:26:10.826Z,91.80
2019-01-08T11:28:47.363Z,92.00
2019-01-08T11:31:21.339Z,92.10
2019-01-08T11:33:54.647Z,91.80
2019-01-08T11:36:31.946Z,92.40
2019-01-08T11:39:06.657Z,92.10
2019-01-08T11:41:41.578Z,91.90
2019-01-08T11:44:12.595Z,91.60
2019-01-08T11:46:52.891Z,91.50
2019-01-08T11:49:37.974Z,90.90
2019-01-08T11:52:18.598Z,90.20
2019-01-08T11:54:48.474Z,90.20
2019-01-08T11:57:18.924Z,90.00
2019-01-08T11:59:48.482Z,89.80
2019-01-08T12:02:18.199Z,89.60
2019-01-08T12:04:48.013Z,89.50
2019-01-08T12:07:18.873Z,89.50
2019-01-08T12:09:49.365Z,89.60
2019-01-08T12:12:19.051Z,88.60
2019-01-08T12:14:51.662Z,89.40
2019-01-08T12:17:21.431Z,88.70
2019-01-08T12:19:53.574Z,88.00
2019-01-08T12:22:23.246Z,87.50
2019-01-08T12:24:52.937Z,88.10
2019-01-08T12:27:22.497Z,86.80
2019-01-08T12:29:52.320Z,86.10
2019-01-08T12:32:22.188Z,85.80
2019-01-08T12:34:51.937Z,85.50
2019-01-08T12:37:21.923Z,85.90
2019-01-08T12:39:51.371Z,86.40
2019-01-08T12:42:24.223Z,87.20
2019-01-08T12:44:53.455Z,85.80
2019-01-08T12:47:22.801Z,86.30
2019-01-08T12:49:54.631Z,84.90
2019-01-08T12:52:24.871Z,85.70
2019-01-08T12:54:57.402Z,84.90
2019-01-08T12:57:27.106Z,86.60
2019-01-08T12:59:58.336Z,84.00
2019-01-08T13:02:27.853Z,85.70
2019-01-08T13:04:59.020Z,83.60
2019-01-08T13:07:29.270Z,83.50
2019-01-08T13:09:58.817Z,86.20
2019-01-08T13:12:28.011Z,82.90
2019-01-08T13:14:57.465Z,82.90
2019-01-08T13:17:26.873Z,83.40
2019-01-08T13:19:56.715Z,80.90
2019-01-08T13:22:25.846Z,80.90
2019-01-08T13:24:55.583Z,79.60
2019-01-08T13:27:25.361Z,81.00
2019-01-08T13:29:59.030Z,80.50
2019-01-08T13:32:31.179Z,78.60
2019-01-08T13:35:02.127Z,79.70
2019-01-08T13:37:31.844Z,79.20
2019-01-08T13:40:01.819Z,78.70
2019-01-08T13:42:31.583Z,79.50
2019-01-08T13:45:00.973Z,80.80
2019-01-08T13:47:30.127Z,80.40
2019-01-08T13:50:00.803Z,78.70
2019-01-08T13:52:31.501Z,79.10
2019-01-08T13:55:01.985Z,78.10
2019-01-08T13:57:31.764Z,79.50
2019-01-08T14:00:03.720Z,81.20
2019-01-08T14:02:41.119Z,79.20
2019-01-08T14:05:11.048Z,78.90
2019-01-08T14:07:41.400Z,80.90
2019-01-08T14:10:12.346Z,79.80
2019-01-08T14:12:42.925Z,79.70
2019-01-08T14:15:12.929Z,80.20
2019-01-08T14:17:42.387Z,78.90
2019-01-08T14:20:17.800Z,79.40
2019-01-08T14:22:47.049Z,79.50
2019-01-08T14:25:17.335Z,79.80
2019-01-08T14:27:53.303Z,79.80
2019-01-08T14:30:24.599Z,80.90
2019-01-08T14:32:54.313Z,80.50
2019-01-08T14:35:23.991Z,80.70
2019-01-08T14:37:57.652Z,80.50
2019-01-08T14:40:34.007Z,82.30
2019-01-08T14:43:03.801Z,82.40
2019-01-08T14:45:33.233Z,82.50
2019-01-08T14:48:03.561Z,82.50
2019-01-08T14:50:32.668Z,80.90
2019-01-08T14:53:02.072Z,80.80
2019-01-08T14:55:31.665Z,81.30
2019-01-08T14:58:01.530Z,81.60
2019-01-08T15:00:31.510Z,81.80
2019-01-08T15:03:00.969Z,82.00
2019-01-08T15:05:30.533Z,82.00
2019-01-08T15:08:00.453Z,82.00
2019-01-08T15:10:31.180Z,80.60
2019-01-08T15:13:01.673Z,80.80
2019-01-08T15:15:31.563Z,80.80
2019-01-08T15:18:01.276Z,80.70
2019-01-08T15:20:33.496Z,81.40
2019-01-08T15:23:03.297Z,81.70
2019-01-08T15:25:32.638Z,81.40
2019-01-08T15:28:01.811Z,81.70
2019-01-08T15:30:33.640Z,81.70
2019-01-08T15:33:03.330Z,82.10
2019-01-08T15:35:33.933Z,82.10
2019-01-08T15:38:04.484Z,83.30
2019-01-08T15:40:34.105Z,82.90
2019-01-08T15:43:04.584Z,83.00
2019-01-08T15:45:33.822Z,82.50
2019-01-08T15:48:05.318Z,82.70
2019-01-08T15:50:36.778Z,82.30
2019-01-08T15:53:06.360Z,83.10
2019-01-08T15:55:37.677Z,82.30
2019-01-08T15:58:07.041Z,82.20
2019-01-08T16:00:42.275Z,83.50
2019-01-08T16:03:12.480Z,82.20
2019-01-08T16:05:41.580Z,82.60
2019-01-08T16:08:11.235Z,82.90
2019-01-08T16:10:40.825Z,83.30
2019-01-08T16:13:10.652Z,82.40
2019-01-08T16:15:41.311Z,82.30
2019-01-08T16:18:10.835Z,82.20
2019-01-08T16:20:40.431Z,83.10
2019-01-08T16:23:10.141Z,83.50
2019-01-08T16:25:40.699Z,82.80
2019-01-08T16:28:10.508Z,82.20
2019-01-08T16:30:39.527Z,83.20
2019-01-08T16:33:15.883Z,82.80
2019-01-08T16:35:40.102Z,83.30
2019-01-08T16:38:09.196Z,83.00
2019-01-08T16:40:39.270Z,83.30
2019-01-08T16:43:08.830Z,83.30
2019-01-08T16:45:41.195Z,84.00
2019-01-08T16:48:10.619Z,83.80
2019-01-08T16:50:40.823Z,84.00
2019-01-08T16:53:10.182Z,83.60
2019-01-08T16:55:40.737Z,84.10
2019-01-08T16:58:10.871Z,83.30
2019-01-08T17:00:41.034Z,83.70
2019-01-08T17:03:10.584Z,83.60
2019-01-08T17:05:40.283Z,83.60
2019-01-08T17:08:11.694Z,83.50
2019-01-08T17:10:40.939Z,84.10
2019-01-08T17:13:12.704Z,84.90
2019-01-08T17:15:42.947Z,84.50
2019-01-08T17:18:12.376Z,85.50
2019-01-08T17:20:41.494Z,85.70
2019-01-08T17:23:10.828Z,86.30
2019-01-08T17:25:40.165Z,86.10
2019-01-08T17:28:09.649Z,86.40
2019-01-08T17:30:38.964Z,86.30
2019-01-08T17:33:08.296Z,87.10
2019-01-08T17:35:39.112Z,86.70
2019-01-08T17:38:08.987Z,87.10
2019-01-08T17:40:38.835Z,87.80
2019-01-08T17:43:07.971Z,88.70
2019-01-08T17:45:38.765Z,88.40
2019-01-08T17:48:08.629Z,89.40
2019-01-08T17:50:38.136Z,89.90
2019-01-08T17:53:07.903Z,89.70
2019-01-08T17:55:37.585Z,90.20
2019-01-08T17:58:44.713Z,90.00
2019-01-08T18:01:23.683Z,89.50
2019-01-08T18:03:53.186Z,89.60
2019-01-08T18:06:23.092Z,89.90
2019-01-08T18:08:52.738Z,90.20
2019-01-08T18:11:22.238Z,90.20
2019-01-08T18:13:52.488Z,90.40
2019-01-08T18:16:23.895Z,90.80
2019-01-08T18:18:53.481Z,91.10
2019-01-08T18:21:22.918Z,91.00
2019-01-08T18:23:52.463Z,91.10
2019-01-08T18:26:22.311Z,91.20
2019-01-08T18:28:52.048Z,91.30
2019-01-08T18:31:24.593Z,90.80
2019-01-08T18:33:54.023Z,90.80
2019-01-08T18:36:23.851Z,90.70
2019-01-08T18:38:52.966Z,90.90
2019-01-08T18:41:22.990Z,91.30
2019-01-08T18:43:52.860Z,91.10
2019-01-08T18:46:22.782Z,91.20
2019-01-08T18:48:52.266Z,91.10
2019-01-08T18:51:21.862Z,91.20
2019-01-08T18:53:51.337Z,91.20
2019-01-08T18:56:20.389Z,91.20
2019-01-08T18:58:50.307Z,91.20
2019-01-08T19:01:21.900Z,91.50
2019-01-08T19:03:59.566Z,91.20
2019-01-08T19:06:22.414Z,91.30
2019-01-08T19:09:30.207Z,91.30
2019-01-08T19:11:59.659Z,91.20
2019-01-08T19:14:32.077Z,91.00
2019-01-08T19:17:02.224Z,91.20
2019-01-08T19:19:32.111Z,91.00
2019-01-08T19:22:01.399Z,91.20
2019-01-08T19:24:31.979Z,90.70
2019-01-08T19:27:01.417Z,90.70
2019-01-08T19:29:33.478Z,90.50
2019-01-08T19:32:03.192Z,90.00
2019-01-08T19:34:32.154Z,90.30
2019-01-08T19:37:01.538Z,90.00
2019-01-08T19:39:30.613Z,90.10
2019-01-08T19:41:59.942Z,90.10
2019-01-08T19:44:29.487Z,90.00
2019-01-08T19:46:58.569Z,89.80
2019-01-08T19:49:28.116Z,89.90
2019-01-08T19:51:57.532Z,89.10
2019-01-08T19:54:27.318Z,89.30
2019-01-08T19:56:57.459Z,88.90
2019-01-08T19:59:27.044Z,88.90
2019-01-08T20:01:56.553Z,89.30
2019-01-08T20:04:26.210Z,89.50
2019-01-08T20:06:56.146Z,88.60
2019-01-08T20:09:27.936Z,87.80
2019-01-08T20:11:56.755Z,88.50
2019-01-08T20:14:26.776Z,87.80
2019-01-08T20:16:56.908Z,89.50
2019-01-08T20:19:27.189Z,89.40
2019-01-08T20:21:57.221Z,88.50
2019-01-08T20:24:26.742Z,88.80
2019-01-08T20:26:56.619Z,90.20
2019-01-08T20:29:25.711Z,89.30
2019-01-08T20:31:54.913Z,89.80
2019-01-08T20:34:26.914Z,89.50
2019-01-08T20:36:55.512Z,89.20
2019-01-08T20:39:24.902Z,89.30
2019-01-08T20:41:54.284Z,88.80
2019-01-08T20:44:23.216Z,88.60
2019-01-08T20:46:52.565Z,89.10
2019-01-08T20:49:21.919Z,88.30
2019-01-08T20:51:51.024Z,89.20
2019-01-08T20:54:20.889Z,89.50
2019-01-08T20:56:50.664Z,88.20
2019-01-08T20:59:20.099Z,88.10
2019-01-08T21:01:50.318Z,88.90
2019-01-08T21:04:21.055Z,88.30
2019-01-08T21:06:50.815Z,89.50
2019-01-08T21:09:20.575Z,88.50
2019-01-08T21:11:50.799Z,90.00
2019-01-08T21:14:20.100Z,89.30
2019-01-08T21:16:49.300Z,90.20
2019-01-08T21:19:20.010Z,89.90
2019-01-08T21:21:52.148Z,89.70
2019-01-08T21:24:28.527Z,90.50
2019-01-08T21:26:54.329Z,90.00
2019-01-08T21:29:23.659Z,89.70
2019-01-08T21:34:21.809Z,89.40
2019-01-08T21:36:52.421Z,90.00
2019-01-08T21:39:21.903Z,90.10
2019-01-08T21:41:52.353Z,90.50
2019-01-08T21:44:21.804Z,91.30
2019-01-08T21:46:51.038Z,91.20
2019-01-08T21:49:21.809Z,88.60
2019-01-08T21:51:51.630Z,90.30
2019-01-08T21:54:20.660Z,89.70
2019-01-08T21:56:51.129Z,89.80
2019-01-08T21:59:22.535Z,90.00
2019-01-08T22:01:52.775Z,89.60
2019-01-08T22:04:23.471Z,90.10
2019-01-08T22:06:53.236Z,90.10
2019-01-08T22:09:23.341Z,90.90
2019-01-08T22:11:52.744Z,91.00
2019-01-08T22:14:22.359Z,90.80
2019-01-08T22:16:52.958Z,90.90
2019-01-08T22:19:22.162Z,91.10
2019-01-08T22:21:52.984Z,90.70
2019-01-08T22:24:23.010Z,90.90
2019-01-08T22:26:52.315Z,91.20
2019-01-08T22:29:21.966Z,91.30
2019-01-08T22:31:51.467Z,91.10
2019-01-08T22:34:21.025Z,91.30
2019-01-08T22:36:51.172Z,91.60
2019-01-08T22:39:21.813Z,91.20
2019-01-08T22:41:52.292Z,90.60
2019-01-08T22:44:24.290Z,90.80
2019-01-08T22:46:55.414Z,90.30
2019-01-08T22:49:25.591Z,90.00
2019-01-08T22:51:56.270Z,89.90
2019-01-08T22:54:27.218Z,88.90
2019-01-08T22:56:57.766Z,88.60
2019-01-08T22:59:27.596Z,88.60
2019-01-08T23:01:57.274Z,88.90
2019-01-08T23:04:27.286Z,88.70
2019-01-08T23:06:58.107Z,88.80
2019-01-08T23:09:27.660Z,88.90
2019-01-08T23:11:57.515Z,90.00
2019-01-08T23:14:27.674Z,90.00
2019-01-08T23:16:57.183Z,89.80
2019-01-08T23:19:26.863Z,90.00
2019-01-08T23:21:56.352Z,89.60
2019-01-08T23:24:25.455Z,88.70
2019-01-08T23:26:54.783Z,88.00
2019-01-08T23:29:23.909Z,88.50
2019-01-08T23:31:53.616Z,87.50
2019-01-08T23:34:23.370Z,87.40
2019-01-08T23:36:52.848Z,86.10
2019-01-08T23:39:22.853Z,85.60
2019-01-08T23:41:52.352Z,86.90
2019-01-08T23:44:21.904Z,88.50
2019-01-08T23:46:51.061Z,88.40
2019-01-08T23:49:20.887Z,89.10
2019-01-08T23:51:57.376Z,89.80
2019-01-08T23:54:27.877Z,89.80
2019-01-08T23:56:58.680Z,90.10
2019-01-08T23:59:27.744Z,90.10
